En Direct

LFST 231030Z AUTO 19010KT 9999 SCT044 SCT058 BKN072 05/03 Q0998 NOSIG


TAF LFST 230510Z 2306/2406 19008KT 9999 FEW010 BKN040 PROB30 TEMPO 2306/2309 BKN009 TEMPO 2314/2320 -SHRA FEW020TCU BKN030 BECMG 2322/2324 25013KT

Nos Avions

7 avions disponibles et entretenus par un atelier agréé, permettant tous types de vols (formation, promenade, voyage…)

l'école de pilotage

PPL, LAPL, Vol de nuit, SEP… Toutes ces formations sont dispensées par nos instructeurs bénévoles.
Formation Théorique Mermoz via la FFA

Notre Plateforme

Nous sommes basés à l’aéroport de Strasbourg-Entzheim (LFST) en plein coeur de l’Alsace qui permet de voyager rapidement outre Rhin, mais également de profiter des paysages variés

Notre Actualité

Retrouvez tous nos articles dans l’onglet Actualités

Nos réseaux

Suivez-nous sur les réseaux sociaux